createdAt,value
2023-04-01T00:02:24.427Z,4.38
2023-04-01T00:04:50.923Z,7.40
2023-04-01T00:07:17.430Z,8.82
2023-04-01T00:09:46.072Z,6.85
2023-04-01T00:12:12.592Z,4.90
2023-04-01T00:14:39.455Z,7.88
2023-04-01T00:17:05.990Z,7.68
2023-04-01T00:19:32.711Z,7.50
2023-04-01T00:21:59.562Z,5.30
2023-04-01T00:24:26.058Z,7.13
2023-04-01T00:26:52.996Z,5.18
2023-04-01T00:29:19.527Z,9.30
2023-04-01T00:31:46.124Z,4.95
2023-04-01T00:34:13.550Z,6.88
2023-04-01T00:36:40.137Z,8.85
2023-04-01T00:39:06.710Z,10.38
2023-04-01T00:41:33.398Z,3.60
2023-04-01T00:44:24.693Z,4.78
2023-04-01T00:46:51.492Z,7.28
2023-04-01T00:49:19.957Z,5.47
2023-04-01T00:51:48.335Z,6.38
2023-04-01T00:54:15.513Z,3.47
2023-04-01T00:56:51.751Z,3.65
2023-04-01T00:59:24.994Z,3.90
2023-04-01T01:01:51.720Z,3.80
2023-04-01T01:04:36.610Z,3.55
2023-04-01T01:07:43.399Z,3.20
2023-04-01T01:10:27.703Z,7.55
2023-04-01T01:12:54.147Z,3.30
2023-04-01T01:15:26.004Z,2.78
2023-04-01T01:18:01.782Z,4.45
2023-04-01T01:20:43.804Z,4.60
2023-04-01T01:23:16.318Z,4.10
2023-04-01T01:25:58.116Z,4.93
2023-04-01T01:28:48.556Z,5.97
2023-04-01T01:34:23.688Z,3.70
2023-04-01T01:36:55.069Z,4.15
2023-04-01T01:39:22.186Z,4.15
2023-04-01T01:41:49.122Z,3.85
2023-04-01T01:44:17.164Z,4.32
2023-04-01T01:46:44.918Z,3.65
2023-04-01T01:49:12.772Z,4.28
2023-04-01T01:51:39.304Z,2.13
2023-04-01T01:54:05.846Z,5.95
2023-04-01T01:56:35.987Z,2.58
2023-04-01T01:59:05.090Z,4.30
2023-04-01T02:01:34.282Z,4.93
2023-04-01T02:04:01.140Z,4.82
2023-04-01T02:06:30.368Z,3.53
2023-04-01T02:09:00.351Z,4.18
2023-04-01T02:11:48.908Z,4.32
2023-04-01T02:14:18.314Z,4.07
2023-04-01T02:16:46.191Z,4.22
2023-04-01T02:19:13.410Z,3.92
2023-04-01T02:21:41.006Z,3.88
2023-04-01T02:24:12.496Z,6.65
2023-04-01T02:26:39.236Z,2.70
2023-04-01T02:29:06.645Z,4.00
2023-04-01T02:31:33.315Z,6.28
2023-04-01T02:34:00.061Z,7.57
2023-04-01T02:36:26.747Z,6.00
2023-04-01T02:38:53.393Z,6.82
2023-04-01T02:41:21.030Z,3.83
2023-04-01T02:43:47.558Z,4.50
2023-04-01T02:46:14.119Z,3.00
2023-04-01T02:48:40.686Z,3.13
2023-04-01T02:51:07.525Z,4.90
2023-04-01T02:53:34.024Z,4.72
2023-04-01T02:56:00.578Z,4.20
2023-04-01T02:58:27.101Z,3.47
2023-04-01T03:00:53.691Z,5.45
2023-04-01T03:03:20.268Z,6.47
2023-04-01T03:05:46.860Z,2.88
2023-04-01T03:08:13.431Z,3.65
2023-04-01T03:10:39.970Z,4.25
2023-04-01T03:13:06.528Z,4.07
2023-04-01T03:15:33.396Z,3.08
2023-04-01T03:18:01.927Z,2.80
2023-04-01T03:20:28.554Z,2.22
2023-04-01T03:22:55.046Z,2.88
2023-04-01T03:25:21.618Z,3.72
2023-04-01T03:27:48.130Z,2.05
2023-04-01T03:30:14.730Z,1.92
2023-04-01T03:32:41.421Z,3.40
2023-04-01T03:35:08.373Z,1.83
2023-04-01T03:37:34.875Z,1.30
2023-04-01T03:40:01.600Z,3.13
2023-04-01T03:42:28.095Z,2.58
2023-04-01T03:44:54.586Z,2.85
2023-04-01T03:47:21.098Z,3.13
2023-04-01T03:49:47.597Z,3.33
2023-04-01T03:52:14.112Z,6.53
2023-04-01T03:54:40.608Z,4.50
2023-04-01T03:57:07.261Z,3.45
2023-04-01T03:59:33.870Z,2.83
2023-04-01T04:02:00.388Z,1.92
2023-04-01T04:04:27.749Z,2.63
2023-04-01T04:06:54.899Z,5.07
2023-04-01T04:09:21.528Z,4.78
2023-04-01T04:11:48.060Z,3.17
2023-04-01T04:14:14.548Z,4.43
2023-04-01T04:16:41.243Z,6.80
2023-04-01T04:19:07.850Z,3.92
2023-04-01T04:21:34.492Z,2.63
2023-04-01T04:24:01.661Z,4.32
2023-04-01T04:26:28.300Z,4.80
2023-04-01T04:28:55.385Z,3.92
2023-04-01T04:31:26.877Z,5.10
2023-04-01T04:33:53.920Z,5.15
2023-04-01T04:36:23.083Z,5.95
2023-04-01T04:38:49.636Z,5.35
2023-04-01T04:41:18.161Z,3.30
2023-04-01T04:43:50.751Z,6.13
2023-04-01T04:46:17.811Z,3.70
2023-04-01T04:48:45.147Z,3.25
2023-04-01T04:51:17.907Z,2.97
2023-04-01T04:53:44.510Z,2.47
2023-04-01T04:56:11.138Z,5.88
2023-04-01T04:58:38.953Z,2.22
2023-04-01T05:01:10.257Z,4.07
2023-04-01T05:03:39.560Z,3.33
2023-04-01T05:06:06.986Z,2.88
2023-04-01T05:08:33.887Z,3.15
2023-04-01T05:11:01.332Z,3.08
2023-04-01T05:13:28.647Z,3.75
2023-04-01T05:15:55.311Z,2.92
2023-04-01T05:18:22.310Z,1.77
2023-04-01T05:20:50.676Z,1.15
2023-04-01T05:23:17.230Z,3.17
2023-04-01T05:25:44.376Z,2.78
2023-04-01T05:28:10.951Z,3.20
2023-04-01T05:30:37.559Z,2.85
2023-04-01T05:33:04.236Z,3.97
2023-04-01T05:35:30.955Z,2.60
2023-04-01T05:37:57.571Z,1.75
2023-04-01T05:40:24.164Z,3.65
2023-04-01T05:42:52.171Z,2.30
2023-04-01T05:45:18.678Z,2.80
2023-04-01T05:47:45.323Z,5.07
2023-04-01T05:50:12.052Z,1.30
2023-04-01T05:52:38.959Z,4.03
2023-04-01T05:55:06.250Z,3.33
2023-04-01T05:57:32.876Z,2.05
2023-04-01T05:59:59.380Z,2.63
2023-04-01T06:02:26.012Z,2.28
2023-04-01T06:05:02.555Z,2.30
2023-04-01T06:07:30.026Z,2.13
2023-04-01T06:09:56.561Z,3.28
2023-04-01T06:12:32.423Z,1.35
2023-04-01T06:15:11.823Z,3.90
2023-04-01T06:17:50.504Z,3.35
2023-04-01T06:20:25.706Z,2.08
2023-04-01T06:23:07.486Z,3.15
2023-04-01T06:25:54.265Z,2.22
2023-04-01T06:28:45.163Z,1.63
2023-04-01T06:31:35.048Z,3.33
2023-04-01T06:34:07.639Z,3.08
2023-04-01T06:36:59.062Z,2.10
2023-04-01T06:39:43.890Z,5.53
2023-04-01T06:42:25.651Z,2.67
2023-04-01T06:45:18.752Z,2.53
2023-04-01T06:48:03.993Z,1.48
2023-04-01T06:50:45.297Z,1.85
2023-04-01T06:53:14.391Z,0.68
2023-04-01T06:55:43.848Z,2.10
2023-04-01T06:58:23.366Z,1.60
2023-04-01T07:00:53.107Z,1.35
2023-04-01T07:03:42.933Z,0.98
2023-04-01T07:06:24.004Z,0.85
2023-04-01T07:08:50.702Z,1.95
2023-04-01T07:11:33.025Z,0.73
2023-04-01T07:14:06.808Z,1.10
2023-04-01T07:16:46.346Z,0.70
2023-04-01T07:19:32.640Z,1.58
2023-04-01T07:22:05.293Z,2.75
2023-04-01T07:24:40.794Z,1.25
2023-04-01T07:27:11.402Z,1.70
2023-04-01T07:29:38.114Z,1.27
2023-04-01T07:32:13.790Z,1.73
2023-04-01T07:34:54.076Z,3.40
2023-04-01T07:37:32.844Z,1.73
2023-04-01T07:40:05.067Z,0.60
2023-04-01T07:42:38.533Z,1.20
2023-04-01T07:45:26.007Z,1.45
2023-04-01T07:48:00.807Z,1.15
2023-04-01T07:50:33.960Z,2.53
2023-04-01T07:53:09.110Z,1.95
2023-04-01T07:55:44.759Z,3.35
2023-04-01T07:58:23.371Z,2.35
2023-04-01T08:01:03.429Z,1.73
2023-04-01T08:03:54.564Z,0.70
2023-04-01T08:07:04.661Z,3.22
2023-04-01T08:09:59.948Z,0.93
2023-04-01T08:12:32.604Z,2.22
2023-04-01T08:15:05.221Z,1.55
2023-04-01T08:17:44.857Z,1.52
2023-04-01T08:20:33.392Z,1.33
2023-04-01T08:23:22.732Z,2.53
2023-04-01T08:25:55.180Z,1.55
2023-04-01T08:28:44.377Z,2.35
2023-04-01T08:31:18.676Z,1.38
2023-04-01T08:33:47.430Z,1.92
2023-04-01T08:36:24.217Z,2.13
2023-04-01T08:38:57.006Z,1.73
2023-04-01T08:41:32.552Z,2.95
2023-04-01T08:44:05.064Z,1.80
2023-04-01T08:46:58.041Z,2.97
2023-04-01T08:49:57.669Z,2.80
2023-04-01T08:52:45.859Z,1.05
2023-04-01T08:55:24.309Z,0.60
2023-04-01T08:57:59.837Z,2.63
2023-04-01T09:00:29.392Z,1.08
2023-04-01T09:03:31.020Z,0.32
2023-04-01T09:06:06.612Z,3.53
2023-04-01T09:08:51.378Z,1.13
2023-04-01T09:11:32.178Z,1.35
2023-04-01T09:14:29.556Z,1.17
2023-04-01T09:17:05.214Z,0.95
2023-04-01T09:19:42.597Z,0.85
2023-04-01T09:22:34.781Z,2.47
2023-04-01T09:25:16.477Z,1.38
2023-04-01T09:27:52.267Z,1.63
2023-04-01T09:30:35.604Z,0.25
2023-04-01T09:33:23.152Z,0.85
2023-04-01T09:36:05.387Z,1.55
2023-04-01T09:38:47.451Z,0.80
2023-04-01T09:41:27.390Z,2.13
2023-04-01T09:44:04.000Z,1.58
2023-04-01T09:47:12.053Z,2.10
2023-04-01T09:50:04.760Z,0.70
2023-04-01T09:52:40.012Z,1.77
2023-04-01T09:55:41.999Z,1.15
2023-04-01T09:58:26.695Z,0.73
2023-04-01T10:01:08.441Z,1.08
2023-04-01T10:04:19.746Z,0.50
2023-04-01T10:07:23.650Z,1.98
2023-04-01T10:10:23.943Z,1.67
2023-04-01T10:16:00.156Z,3.13
2023-04-01T10:18:47.531Z,2.28
2023-04-01T10:21:41.745Z,3.28
2023-04-01T10:24:29.834Z,2.33
2023-04-01T10:27:22.611Z,1.38
2023-04-01T10:30:07.389Z,1.65
2023-04-01T10:32:57.279Z,3.63
2023-04-01T10:35:26.941Z,1.80
2023-04-01T10:37:56.516Z,1.63
2023-04-01T10:40:56.107Z,1.00
2023-04-01T10:43:47.549Z,1.80
2023-04-01T10:46:40.514Z,1.67
2023-04-01T10:49:44.508Z,1.40
2023-04-01T10:52:32.405Z,1.52
2023-04-01T10:55:15.263Z,1.13
2023-04-01T10:57:53.907Z,2.22
2023-04-01T11:00:23.042Z,1.52
2023-04-01T11:03:19.556Z,2.45
2023-04-01T11:06:10.908Z,1.85
2023-04-01T11:09:11.532Z,1.88
2023-04-01T11:11:53.050Z,2.15
2023-04-01T11:14:43.535Z,3.88
2023-04-01T11:17:47.747Z,2.95
2023-04-01T11:20:34.296Z,1.85
2023-04-01T11:23:25.586Z,1.75
2023-04-01T11:26:07.265Z,2.15
2023-04-01T11:29:08.654Z,1.50
2023-04-01T11:31:53.933Z,1.80
2023-04-01T11:34:37.003Z,2.35
2023-04-01T11:37:18.097Z,0.47
2023-04-01T11:39:50.646Z,0.95
2023-04-01T11:42:46.612Z,0.80
2023-04-01T11:45:28.305Z,2.13
2023-04-01T11:48:24.846Z,0.90
2023-04-01T11:51:06.610Z,0.50
2023-04-01T11:53:57.337Z,1.05
2023-04-01T11:57:06.296Z,0.95
2023-04-01T11:59:40.596Z,0.77
2023-04-01T12:02:25.266Z,0.47
2023-04-01T12:05:10.384Z,1.40
2023-04-01T12:07:54.759Z,1.85
2023-04-01T12:10:23.855Z,1.08
2023-04-01T12:13:01.540Z,0.77
2023-04-01T12:16:06.017Z,1.33
2023-04-01T12:18:59.372Z,0.98
2023-04-01T12:21:39.873Z,0.22
2023-04-01T12:24:28.280Z,0.37
2023-04-01T12:27:19.462Z,0.30
2023-04-01T12:29:54.892Z,0.10
2023-04-01T12:32:31.741Z,1.50
2023-04-01T12:34:58.174Z,0.60
2023-04-01T12:37:43.044Z,1.80
2023-04-01T12:40:27.774Z,0.60
2023-04-01T12:43:22.107Z,0.63
2023-04-01T12:46:17.025Z,1.23
2023-04-01T12:48:54.799Z,0.60
2023-04-01T12:51:56.929Z,0.80
2023-04-01T12:54:33.694Z,0.73
2023-04-01T12:57:09.329Z,0.90
2023-04-01T13:00:13.297Z,0.87
2023-04-01T13:03:13.614Z,0.93
2023-04-01T13:06:18.556Z,3.03
2023-04-01T13:09:11.727Z,2.00
2023-04-01T13:11:57.183Z,1.33
2023-04-01T13:14:44.952Z,2.13
2023-04-01T13:17:49.070Z,1.97
2023-04-01T13:20:38.969Z,1.90
2023-04-01T13:23:24.143Z,2.25
2023-04-01T13:26:21.286Z,0.30
2023-04-01T13:29:26.850Z,1.30
2023-04-01T13:32:03.151Z,1.33
2023-04-01T13:34:38.652Z,0.85
2023-04-01T13:37:28.166Z,0.50
2023-04-01T13:40:19.210Z,3.65
2023-04-01T13:42:49.451Z,0.40
2023-04-01T13:52:23.848Z,2.10
2023-04-01T14:02:28.319Z,1.60
2023-04-01T14:05:26.488Z,0.87
2023-04-01T14:10:38.825Z,0.40
2023-04-01T14:20:23.999Z,0.50
2023-04-01T14:26:12.668Z,1.20
2023-04-01T14:28:44.730Z,1.20
2023-04-01T14:31:35.966Z,1.20
2023-04-01T14:34:30.014Z,1.17
2023-04-01T14:37:18.321Z,0.88
2023-04-01T14:40:01.303Z,0.95
2023-04-01T14:42:49.523Z,1.10
2023-04-01T14:45:43.402Z,1.45
2023-04-01T14:48:53.834Z,1.88
2023-04-01T15:05:51.159Z,1.13
2023-04-01T15:08:53.086Z,2.08
2023-04-01T15:11:50.418Z,2.50
2023-04-01T15:15:05.051Z,2.20
2023-04-01T15:17:48.042Z,1.55
2023-04-01T15:20:20.634Z,1.95
2023-04-01T15:23:11.004Z,2.10
2023-04-01T15:25:56.196Z,2.05
2023-04-01T15:28:25.774Z,0.85
2023-04-01T15:31:16.764Z,1.20
2023-04-01T15:33:51.494Z,1.75
2023-04-01T15:36:38.873Z,0.77
2023-04-01T15:39:09.260Z,0.85
2023-04-01T15:41:52.255Z,0.52
2023-04-01T15:44:53.914Z,0.85
2023-04-01T15:47:26.798Z,1.52
2023-04-01T15:50:31.980Z,1.67
2023-04-01T15:53:31.555Z,0.90
2023-04-01T15:56:20.167Z,1.65
2023-04-01T15:59:11.638Z,1.30
2023-04-01T16:02:09.079Z,1.13
2023-04-01T16:04:49.273Z,3.33
2023-04-01T16:10:28.639Z,2.05
2023-04-01T16:13:07.019Z,3.13
2023-04-01T16:16:11.682Z,0.98
2023-04-01T16:18:53.342Z,1.30
2023-04-01T16:21:35.067Z,2.33
2023-04-01T16:24:30.947Z,0.93
2023-04-01T16:27:22.134Z,1.42
2023-04-01T16:30:26.485Z,1.10
2023-04-01T16:33:00.462Z,0.95
2023-04-01T16:35:35.345Z,0.95
2023-04-01T16:38:29.951Z,1.45
2023-04-01T16:41:08.518Z,2.55
2023-04-01T16:44:09.234Z,0.90
2023-04-01T16:46:39.357Z,0.82
2023-04-01T16:49:24.089Z,1.57
2023-04-01T16:52:09.424Z,0.63
2023-04-01T16:55:11.840Z,1.60
2023-04-01T16:58:10.649Z,1.10
2023-04-01T17:01:19.913Z,0.90
2023-04-01T17:07:04.641Z,1.58
2023-04-01T17:09:47.041Z,1.42
2023-04-01T17:12:39.811Z,1.88
2023-04-01T17:15:09.701Z,1.05
2023-04-01T17:17:46.853Z,0.68
2023-04-01T17:20:54.795Z,0.75
2023-04-01T17:23:26.133Z,1.95
2023-04-01T17:26:17.257Z,1.67
2023-04-01T17:28:54.247Z,1.92
2023-04-01T17:31:26.709Z,0.68
2023-04-01T17:34:05.104Z,1.20
2023-04-01T17:36:44.911Z,1.77
2023-04-01T17:39:38.886Z,1.95
2023-04-01T17:42:16.694Z,1.70
2023-04-01T17:44:55.531Z,2.90
2023-04-01T17:47:28.836Z,1.45
2023-04-01T17:50:20.356Z,0.90
2023-04-01T17:52:58.532Z,1.20
2023-04-01T17:55:48.520Z,0.77
2023-04-01T17:58:22.000Z,2.22
2023-04-01T18:01:21.183Z,0.88
2023-04-01T18:04:05.736Z,1.38
2023-04-01T18:06:35.024Z,1.15
2023-04-01T18:09:14.840Z,1.02
2023-04-01T18:12:08.070Z,1.17
2023-04-01T18:14:37.460Z,1.10
2023-04-01T18:17:09.747Z,0.85
2023-04-01T18:19:43.704Z,1.55
2023-04-01T18:22:29.152Z,1.90
2023-04-01T18:25:02.817Z,1.15
2023-04-01T18:27:33.182Z,1.00
2023-04-01T18:32:52.949Z,1.13
2023-04-01T18:35:33.399Z,1.15
2023-04-01T18:38:09.134Z,2.72
2023-04-01T18:40:44.432Z,1.10
2023-04-01T18:43:34.357Z,0.80
2023-04-01T18:46:03.401Z,2.08
2023-04-01T18:48:47.310Z,1.63
2023-04-01T18:51:40.980Z,1.65
2023-04-01T18:54:28.383Z,1.30
2023-04-01T18:57:14.210Z,1.55
2023-04-01T18:59:48.154Z,4.00
2023-04-01T19:02:19.251Z,2.05
2023-04-01T19:04:58.010Z,1.20
2023-04-01T19:07:42.073Z,1.27
2023-04-01T19:10:25.434Z,1.52
2023-04-01T19:13:16.145Z,1.48
2023-04-01T19:16:01.774Z,3.33
2023-04-01T19:18:46.550Z,1.92
2023-04-01T19:21:34.596Z,3.13
2023-04-01T19:24:23.152Z,0.80
2023-04-01T19:27:12.846Z,2.28
2023-04-01T19:30:02.371Z,1.33
2023-04-01T19:32:56.382Z,1.83
2023-04-01T19:35:40.947Z,1.95
2023-04-01T19:38:21.181Z,1.25
2023-04-01T19:40:54.322Z,0.80
2023-04-01T19:43:27.180Z,1.70
2023-04-01T19:46:05.948Z,1.63
2023-04-01T19:48:38.790Z,1.33
2023-04-01T19:51:11.670Z,1.70
2023-04-01T19:53:55.801Z,1.52
2023-04-01T19:56:23.934Z,1.90
2023-04-01T19:59:02.862Z,1.33
2023-04-01T20:01:45.965Z,1.20
2023-04-01T20:04:18.969Z,3.60
2023-04-01T20:07:12.890Z,0.90
2023-04-01T20:10:01.135Z,1.58
2023-04-01T20:12:44.783Z,2.45
2023-04-01T20:15:46.752Z,1.23
2023-04-01T20:18:24.237Z,1.88
2023-04-01T20:21:15.403Z,1.50
2023-04-01T20:23:44.581Z,1.67
2023-04-01T20:26:13.050Z,1.25
2023-04-01T20:28:42.604Z,2.58
2023-04-01T20:31:29.147Z,3.78
2023-04-01T20:34:11.236Z,4.60
2023-04-01T20:36:56.498Z,1.67
2023-04-01T20:39:35.194Z,1.80
2023-04-01T20:42:23.040Z,1.70
2023-04-01T20:45:08.279Z,2.20
2023-04-01T20:48:00.803Z,1.00
2023-04-01T20:51:06.678Z,2.42
2023-04-01T20:54:10.624Z,2.35
2023-04-01T20:56:48.990Z,0.90
2023-04-01T20:59:19.318Z,1.35
2023-04-01T21:01:55.902Z,2.63
2023-04-01T21:04:28.495Z,1.00
2023-04-01T21:07:09.851Z,2.08
2023-04-01T21:09:54.915Z,1.88
2023-04-01T21:12:36.712Z,0.88
2023-04-01T21:15:12.612Z,2.10
2023-04-01T21:17:47.932Z,2.38
2023-04-01T21:20:20.198Z,2.13
2023-04-01T21:23:23.921Z,1.45
2023-04-01T21:26:10.395Z,1.55
2023-04-01T21:28:41.366Z,0.95
2023-04-01T21:31:32.743Z,0.55
2023-04-01T21:34:31.089Z,0.80
2023-04-01T21:37:18.569Z,0.82
2023-04-01T21:40:03.346Z,1.08
2023-04-01T21:42:39.923Z,0.70
2023-04-01T21:45:48.164Z,0.98
2023-04-01T21:48:51.878Z,1.70
2023-04-01T21:51:55.425Z,1.35
2023-04-01T21:54:43.391Z,0.80
2023-04-01T21:57:20.052Z,1.45
2023-04-01T22:00:27.379Z,1.35
2023-04-01T22:02:59.933Z,3.42
2023-04-01T22:05:34.731Z,2.17
2023-04-01T22:08:32.550Z,2.85
2023-04-01T22:11:24.437Z,15.93
2023-04-01T22:13:55.989Z,26.33
2023-04-01T22:16:42.629Z,3.92
2023-04-01T22:19:28.116Z,1.40
2023-04-01T22:22:13.741Z,2.13
2023-04-01T22:25:01.491Z,1.63
2023-04-01T22:27:29.646Z,1.23
2023-04-01T22:30:02.128Z,1.25
2023-04-01T22:32:38.321Z,1.17
2023-04-01T22:35:07.579Z,1.23
2023-04-01T22:38:00.132Z,1.27
2023-04-01T22:40:34.814Z,0.82
2023-04-01T22:43:18.448Z,1.35
2023-04-01T22:46:08.762Z,2.30
2023-04-01T22:51:17.336Z,1.33
2023-04-01T22:53:49.828Z,1.27
2023-04-01T22:56:19.628Z,1.90
2023-04-01T22:58:53.158Z,2.22
2023-04-01T23:01:29.014Z,1.23
2023-04-01T23:03:56.934Z,1.30
2023-04-01T23:06:28.814Z,1.75
2023-04-01T23:09:09.969Z,1.52
2023-04-01T23:11:40.713Z,1.43
2023-04-01T23:14:22.631Z,1.30
2023-04-01T23:17:00.628Z,2.40
2023-04-01T23:19:35.964Z,0.93
2023-04-01T23:22:27.801Z,2.13
2023-04-01T23:24:57.640Z,1.73
2023-04-01T23:27:32.386Z,0.88
2023-04-01T23:29:58.962Z,1.20
2023-04-01T23:32:26.270Z,1.05
2023-04-01T23:34:55.344Z,1.15
2023-04-01T23:37:22.312Z,1.10
2023-04-01T23:39:59.248Z,0.88
2023-04-01T23:42:44.022Z,2.95
2023-04-01T23:45:16.464Z,1.38
2023-04-01T23:47:43.145Z,1.27
2023-04-01T23:50:17.795Z,1.52
2023-04-01T23:53:01.619Z,0.85
2023-04-01T23:55:35.216Z,0.75
2023-04-01T23:58:07.011Z,3.35
